Time;durP1;ratioP1;P1;durP2;ratioP2;P2;SDS_P1;SDS_P2;PMS_P1;PMS_P2;Temp;Humidity;BMP_temperature;BMP_pressure;BME280_temperature;BME280_humidity;BME280_pressure;Samples;Min_cycle;Max_cycle;Signal;HPM_P1;HPM_P2
2022/11/18 00:01:42;;;;;;;6.83;4.73;;;;;;;;;;5113431;28;20235;-77
2022/11/18 00:04:09;;;;;;;5.17;4.37;;;;;;;;;;5113153;28;20596;-79
2022/11/18 00:06:36;;;;;;;5.30;4.80;;;;;;;;;;5113596;28;20257;-77
2022/11/18 00:09:02;;;;;;;4.60;3.93;;;;;;;;;;5113399;28;20208;-77
2022/11/18 00:14:19;;;;;;;7.80;4.43;;;;;;;;;;5113191;28;20230;-77
2022/11/18 00:16:46;;;;;;;4.23;3.83;;;;;;;;;;5113083;28;20204;-77
2022/11/18 00:19:13;;;;;;;4.87;4.37;;;;;;;;;;5113007;28;20196;-77
2022/11/18 00:21:40;;;;;;;5.30;4.30;;;;;;;;;;5113017;28;20235;-77
2022/11/18 00:24:07;;;;;;;5.27;4.77;;;;;;;;;;5113154;28;20207;-77
2022/11/18 00:26:36;;;;;;;4.37;3.87;;;;;;;;;;5112809;28;20252;-77
2022/11/18 00:29:03;;;;;;;5.50;4.07;;;;;;;;;;5113085;28;20276;-77
2022/11/18 00:31:30;;;;;;;4.17;3.77;;;;;;;;;;5112683;28;20206;-77
2022/11/18 00:33:56;;;;;;;6.83;4.27;;;;;;;;;;5112909;28;20204;-77
2022/11/18 00:36:23;;;;;;;4.90;4.40;;;;;;;;;;5112967;28;20204;-78
2022/11/18 00:38:50;;;;;;;6.40;4.67;;;;;;;;;;5113087;28;20199;-77
2022/11/18 00:41:16;;;;;;;4.60;4.13;;;;;;;;;;5112572;28;20223;-77
2022/11/18 00:43:43;;;;;;;4.50;4.00;;;;;;;;;;5112522;28;20212;-78
2022/11/18 00:46:11;;;;;;;6.80;4.30;;;;;;;;;;5112673;28;20223;-77
2022/11/18 00:48:39;;;;;;;5.30;4.63;;;;;;;;;;5112742;28;20636;-77
2022/11/18 00:51:10;;;;;;;5.60;4.83;;;;;;;;;;5112806;28;20257;-77
2022/11/18 00:53:37;;;;;;;4.87;4.20;;;;;;;;;;5112142;28;20207;-77
2022/11/18 00:56:04;;;;;;;4.67;4.27;;;;;;;;;;5112487;28;20199;-77
2022/11/18 00:58:31;;;;;;;5.03;4.53;;;;;;;;;;5112211;28;20207;-77
2022/11/18 01:00:59;;;;;;;5.07;4.50;;;;;;;;;;5112271;28;20231;-77
2022/11/18 01:03:25;;;;;;;5.20;4.63;;;;;;;;;;5112246;28;20215;-77
2022/11/18 01:05:52;;;;;;;5.53;4.93;;;;;;;;;;5112072;28;20218;-77
2022/11/18 01:08:19;;;;;;;7.07;5.83;;;;;;;;;;5112596;28;20203;-77
2022/11/18 01:10:47;;;;;;;5.50;4.97;;;;;;;;;;5111540;28;20211;-79
2022/11/18 01:13:21;;;;;;;6.47;5.47;;;;;;;;;;5111761;28;20207;-77
2022/11/18 01:15:50;;;;;;;5.70;5.13;;;;;;;;;;5111807;28;20681;-77
2022/11/18 01:18:20;;;;;;;5.77;4.87;;;;;;;;;;5111836;28;20206;-77
2022/11/18 01:20:47;;;;;;;7.73;5.07;;;;;;;;;;5111818;28;20200;-77
2022/11/18 01:23:15;;;;;;;6.23;5.63;;;;;;;;;;5112038;28;20200;-78
2022/11/18 01:25:43;;;;;;;6.33;5.40;;;;;;;;;;5111637;28;20497;-77
2022/11/18 01:28:11;;;;;;;13.20;5.43;;;;;;;;;;5111988;28;20198;-77
2022/11/18 01:30:39;;;;;;;5.77;4.80;;;;;;;;;;5111761;28;20208;-77
2022/11/18 01:33:06;;;;;;;5.97;5.40;;;;;;;;;;5111567;28;20199;-77
2022/11/18 01:35:36;;;;;;;5.87;4.93;;;;;;;;;;5111684;28;20214;-77
2022/11/18 01:38:03;;;;;;;7.93;5.50;;;;;;;;;;5111173;28;20594;-77
2022/11/18 01:40:30;;;;;;;6.80;6.10;;;;;;;;;;5111545;28;20226;-77
2022/11/18 01:42:57;;;;;;;7.27;6.10;;;;;;;;;;5111353;28;20283;-77
2022/11/18 01:45:31;;;;;;;6.80;5.77;;;;;;;;;;5111447;28;20191;-77
2022/11/18 01:48:05;;;;;;;6.67;5.77;;;;;;;;;;5111639;28;20205;-77
2022/11/18 01:50:33;;;;;;;7.07;6.10;;;;;;;;;;5110844;28;20200;-77
2022/11/18 01:53:05;;;;;;;8.10;5.93;;;;;;;;;;5111921;28;20211;-77
2022/11/18 01:55:33;;;;;;;10.70;6.37;;;;;;;;;;5111438;28;20200;-78
2022/11/18 01:58:06;;;;;;;10.87;5.93;;;;;;;;;;5111440;28;20702;-77
2022/11/18 02:00:32;;;;;;;11.03;9.30;;;;;;;;;;5110896;28;20211;-77
2022/11/18 02:03:01;;;;;;;6.57;5.90;;;;;;;;;;5111344;28;20303;-78
2022/11/18 02:05:28;;;;;;;6.43;5.43;;;;;;;;;;5111143;28;20572;-78
2022/11/18 02:07:55;;;;;;;5.93;5.00;;;;;;;;;;5111439;28;20200;-77
2022/11/18 02:10:24;;;;;;;7.23;5.47;;;;;;;;;;5111183;28;20206;-77
2022/11/18 02:12:51;;;;;;;6.20;5.60;;;;;;;;;;5110795;28;20207;-77
2022/11/18 02:15:20;;;;;;;6.70;5.70;;;;;;;;;;5110894;28;20203;-77
2022/11/18 02:17:55;;;;;;;5.80;5.23;;;;;;;;;;5110796;28;20208;-77
2022/11/18 02:20:26;;;;;;;5.40;4.87;;;;;;;;;;5105532;28;20677;-77
2022/11/18 02:23:21;;;;;;;6.57;4.90;;;;;;;;;;5109894;28;20223;-77
2022/11/18 02:26:03;;;;;;;5.90;5.33;;;;;;;;;;5109860;28;20214;-77
2022/11/18 02:28:37;;;;;;;6.70;5.37;;;;;;;;;;5098223;28;20577;-77
2022/11/18 02:31:07;;;;;;;5.43;4.90;;;;;;;;;;5110047;28;20203;-77
2022/11/18 02:33:38;;;;;;;5.97;5.33;;;;;;;;;;5110707;28;20225;-77
2022/11/18 02:36:10;;;;;;;5.50;5.00;;;;;;;;;;5110559;28;20203;-77
2022/11/18 02:38:42;;;;;;;6.20;5.60;;;;;;;;;;5110324;28;20222;-77
2022/11/18 02:41:10;;;;;;;11.37;6.60;;;;;;;;;;5110178;28;20210;-77
2022/11/18 02:43:40;;;;;;;6.43;5.70;;;;;;;;;;5110957;28;20211;-77
2022/11/18 02:46:11;;;;;;;7.60;6.67;;;;;;;;;;5110317;28;20339;-77
2022/11/18 02:48:41;;;;;;;8.10;6.73;;;;;;;;;;5110346;28;20200;-77
2022/11/18 02:51:09;;;;;;;6.87;6.17;;;;;;;;;;5110359;28;20241;-77
2022/11/18 02:53:36;;;;;;;9.83;6.20;;;;;;;;;;5110423;28;20233;-77
2022/11/18 02:56:04;;;;;;;5.87;5.27;;;;;;;;;;5109995;28;20686;-79
2022/11/18 02:58:31;;;;;;;5.07;4.57;;;;;;;;;;5110514;28;20588;-82
2022/11/18 03:00:59;;;;;;;7.27;6.13;;;;;;;;;;5110535;28;20235;-81
2022/11/18 03:03:29;;;;;;;6.27;5.60;;;;;;;;;;5110094;28;20223;-83
2022/11/18 03:06:04;;;;;;;6.57;5.27;;;;;;;;;;5110127;28;20204;-81
2022/11/18 03:08:35;;;;;;;5.93;5.33;;;;;;;;;;5111026;28;20687;-81
2022/11/18 03:11:10;;;;;;;6.90;6.07;;;;;;;;;;5109816;28;20206;-82
2022/11/18 03:13:49;;;;;;;8.40;6.27;;;;;;;;;;5110750;28;20202;-82
2022/11/18 03:16:19;;;;;;;6.50;5.90;;;;;;;;;;5109722;28;20199;-82
2022/11/18 03:18:54;;;;;;;6.20;5.27;;;;;;;;;;5110053;28;20587;-81
2022/11/18 03:21:24;;;;;;;8.27;6.90;;;;;;;;;;5110016;28;20638;-81
2022/11/18 03:23:57;;;;;;;10.60;6.60;;;;;;;;;;5091536;28;20207;-81
2022/11/18 03:26:26;;;;;;;7.57;6.60;;;;;;;;;;5094468;28;20214;-82
2022/11/18 03:28:56;;;;;;;6.67;5.97;;;;;;;;;;5097279;28;20203;-81
2022/11/18 03:31:27;;;;;;;5.93;5.13;;;;;;;;;;5107956;28;20208;-81
2022/11/18 03:33:59;;;;;;;5.13;4.73;;;;;;;;;;5112839;28;20223;-81
2022/11/18 03:36:29;;;;;;;4.57;4.17;;;;;;;;;;5114007;28;20203;-81
2022/11/18 03:38:59;;;;;;;6.20;5.60;;;;;;;;;;5113716;28;20283;-81
2022/11/18 03:41:28;;;;;;;5.90;5.37;;;;;;;;;;5111910;28;20781;-81
2022/11/18 03:43:57;;;;;;;7.83;5.13;;;;;;;;;;5095095;28;20254;-77
2022/11/18 03:46:29;;;;;;;7.17;5.80;;;;;;;;;;5101037;28;20200;-80
2022/11/18 03:48:59;;;;;;;6.93;6.20;;;;;;;;;;5112866;28;20195;-80
2022/11/18 03:51:29;;;;;;;9.23;6.50;;;;;;;;;;5111512;28;20219;-80
2022/11/18 03:53:57;;;;;;;7.57;5.87;;;;;;;;;;5113534;28;20199;-80
2022/11/18 03:56:28;;;;;;;7.33;6.63;;;;;;;;;;5113400;28;20588;-80
2022/11/18 03:59:00;;;;;;;6.10;5.50;;;;;;;;;;5106684;28;20754;-80
2022/11/18 04:01:31;;;;;;;5.33;4.77;;;;;;;;;;5113225;28;20647;-81
2022/11/18 04:03:59;;;;;;;4.60;3.43;;;;;;;;;;5111985;28;20231;-81
2022/11/18 04:06:31;;;;;;;5.97;4.87;;;;;;;;;;5112271;28;20195;-81
2022/11/18 04:09:03;;;;;;;6.30;5.70;;;;;;;;;;5107934;28;20674;-80
2022/11/18 04:14:19;;;;;;;6.17;5.33;;;;;;;;;;5111275;28;20252;-81
2022/11/18 04:16:50;;;;;;;6.23;5.63;;;;;;;;;;5112693;28;20248;-81
2022/11/18 04:19:19;;;;;;;7.70;5.47;;;;;;;;;;5108578;28;20257;-81
2022/11/18 04:21:45;;;;;;;5.83;5.23;;;;;;;;;;5107533;28;20200;-80
2022/11/18 04:24:12;;;;;;;6.23;5.63;;;;;;;;;;5112945;28;20200;-81
2022/11/18 04:26:39;;;;;;;6.30;5.20;;;;;;;;;;5112414;28;20200;-80
2022/11/18 04:29:06;;;;;;;5.20;4.50;;;;;;;;;;5104121;28;20218;-81
2022/11/18 04:31:33;;;;;;;7.03;5.13;;;;;;;;;;5112525;28;20199;-81
2022/11/18 04:33:59;;;;;;;4.97;4.47;;;;;;;;;;5112752;28;20647;-81
2022/11/18 04:36:27;;;;;;;5.23;4.73;;;;;;;;;;5113189;28;20605;-81
2022/11/18 04:38:54;;;;;;;8.10;5.13;;;;;;;;;;5112415;28;20199;-80
2022/11/18 04:41:54;;;;;;;7.37;5.73;;;;;;;;;;5097851;28;20200;-76
2022/11/18 04:44:11;;;;;;;6.47;5.60;;;;;;;;;;5108570;28;20223;-78
2022/11/18 04:46:39;;;;;;;7.03;6.33;;;;;;;;;;5112540;28;20605;-78
2022/11/18 04:49:06;;;;;;;6.90;5.80;;;;;;;;;;5112207;28;20199;-78
2022/11/18 04:51:34;;;;;;;6.40;5.80;;;;;;;;;;5111404;28;20202;-77
2022/11/18 04:54:01;;;;;;;7.90;6.27;;;;;;;;;;5111142;28;20195;-78
2022/11/18 04:56:27;;;;;;;8.67;4.83;;;;;;;;;;5112611;28;20237;-77
2022/11/18 04:58:54;;;;;;;5.57;5.07;;;;;;;;;;5108840;28;20207;-78
2022/11/18 05:01:21;;;;;;;6.20;5.27;;;;;;;;;;5111951;28;20223;-78
2022/11/18 05:03:48;;;;;;;5.80;5.27;;;;;;;;;;5111873;28;20220;-79
2022/11/18 05:06:15;;;;;;;8.13;6.50;;;;;;;;;;5110177;28;20192;-79
2022/11/18 05:08:43;;;;;;;6.27;5.67;;;;;;;;;;5111656;28;20207;-78
2022/11/18 05:13:54;;;;;;;8.83;6.50;;;;;;;;;;5109778;28;20202;-79
2022/11/18 05:16:21;;;;;;;8.17;6.47;;;;;;;;;;5112123;28;20588;-78
2022/11/18 05:18:48;;;;;;;7.00;5.37;;;;;;;;;;5111773;28;20196;-78
2022/11/18 05:21:14;;;;;;;6.13;5.20;;;;;;;;;;5111070;28;20563;-78
2022/11/18 05:23:43;;;;;;;4.93;4.50;;;;;;;;;;5111501;28;20223;-79
2022/11/18 05:26:11;;;;;;;5.93;4.33;;;;;;;;;;5111375;28;20597;-78
2022/11/18 05:28:38;;;;;;;5.07;4.47;;;;;;;;;;5110611;28;20203;-79
2022/11/18 05:31:07;;;;;;;5.90;5.30;;;;;;;;;;5110565;28;20206;-81
2022/11/18 05:33:34;;;;;;;5.30;4.80;;;;;;;;;;5110643;28;20642;-78
2022/11/18 05:36:03;;;;;;;5.37;4.87;;;;;;;;;;5111282;28;20211;-78
2022/11/18 05:38:32;;;;;;;6.03;5.43;;;;;;;;;;5110721;28;20256;-79
2022/11/18 05:41:00;;;;;;;6.10;5.47;;;;;;;;;;5110973;28;20237;-79
2022/11/18 05:43:26;;;;;;;8.77;5.47;;;;;;;;;;5110364;28;20230;-79
2022/11/18 05:45:53;;;;;;;8.13;5.83;;;;;;;;;;5109341;28;20203;-80
2022/11/18 05:48:20;;;;;;;7.80;6.97;;;;;;;;;;5096635;28;20211;-82
2022/11/18 05:50:48;;;;;;;9.83;8.20;;;;;;;;;;5108686;28;20570;-78
2022/11/18 05:53:16;;;;;;;18.93;16.90;;;;;;;;;;5110068;28;20211;-79
2022/11/18 05:55:49;;;;;;;15.37;13.47;;;;;;;;;;5109511;28;20210;-79
2022/11/18 05:58:17;;;;;;;7.70;7.00;;;;;;;;;;5110183;28;20204;-79
2022/11/18 06:00:45;;;;;;;6.53;5.93;;;;;;;;;;5110387;28;20294;-78
2022/11/18 06:03:16;;;;;;;6.10;5.50;;;;;;;;;;5110933;28;20640;-79
2022/11/18 06:05:42;;;;;;;6.67;6.07;;;;;;;;;;5110948;28;20208;-79
2022/11/18 06:08:11;;;;;;;7.43;6.73;;;;;;;;;;5111281;28;20206;-79
2022/11/18 06:10:40;;;;;;;10.73;8.77;;;;;;;;;;5111300;28;20207;-79
2022/11/18 06:13:09;;;;;;;8.43;7.50;;;;;;;;;;5110843;28;20203;-79
2022/11/18 06:15:40;;;;;;;7.63;6.80;;;;;;;;;;5110596;28;20203;-79
2022/11/18 06:18:09;;;;;;;6.00;5.40;;;;;;;;;;5111464;28;20579;-79
2022/11/18 06:20:37;;;;;;;6.53;5.50;;;;;;;;;;5111106;28;20207;-79
2022/11/18 06:23:04;;;;;;;9.37;6.00;;;;;;;;;;5111079;28;20269;-78
2022/11/18 06:25:31;;;;;;;6.80;5.37;;;;;;;;;;5110463;28;20214;-78
2022/11/18 06:28:00;;;;;;;11.00;10.00;;;;;;;;;;5097365;28;20252;-78
2022/11/18 06:30:27;;;;;;;6.83;6.13;;;;;;;;;;5110807;28;20199;-78
2022/11/18 06:32:55;;;;;;;7.77;6.90;;;;;;;;;;5110707;28;20208;-78
2022/11/18 06:35:22;;;;;;;7.53;6.80;;;;;;;;;;5110478;28;20199;-78
2022/11/18 06:37:49;;;;;;;7.63;6.73;;;;;;;;;;5110794;28;20697;-78
2022/11/18 06:40:16;;;;;;;8.27;7.57;;;;;;;;;;5110305;28;20195;-78
2022/11/18 06:45:27;;;;;;;6.97;6.27;;;;;;;;;;5110521;28;20202;-78
2022/11/18 06:47:59;;;;;;;7.87;5.93;;;;;;;;;;5110742;28;20199;-78
2022/11/18 06:50:25;;;;;;;7.20;6.50;;;;;;;;;;5110580;28;20207;-79
2022/11/18 06:52:52;;;;;;;8.63;7.23;;;;;;;;;;5110277;28;20204;-78
2022/11/18 06:55:19;;;;;;;8.23;7.40;;;;;;;;;;5110481;28;20206;-78
2022/11/18 06:57:46;;;;;;;6.70;5.60;;;;;;;;;;5110644;28;20211;-78
2022/11/18 07:00:15;;;;;;;7.37;5.67;;;;;;;;;;5110700;28;20203;-78
2022/11/18 07:02:41;;;;;;;5.23;4.83;;;;;;;;;;5110013;28;20288;-78
2022/11/18 07:05:10;;;;;;;6.00;5.50;;;;;;;;;;5110030;28;20208;-78
2022/11/18 07:07:36;;;;;;;6.70;5.83;;;;;;;;;;5097354;28;20635;-78
2022/11/18 07:10:03;;;;;;;6.00;5.40;;;;;;;;;;5112860;28;20203;-78
2022/11/18 07:12:30;;;;;;;6.50;5.87;;;;;;;;;;5105806;28;20701;-78
2022/11/18 07:14:57;;;;;;;7.17;6.03;;;;;;;;;;5114328;28;20231;-78
2022/11/18 07:17:24;;;;;;;7.43;5.27;;;;;;;;;;5114264;28;20215;-78
2022/11/18 07:19:50;;;;;;;8.23;6.73;;;;;;;;;;5113707;28;20206;-79
2022/11/18 07:22:19;;;;;;;7.37;6.50;;;;;;;;;;5114356;28;20586;-78
2022/11/18 07:24:45;;;;;;;7.47;6.77;;;;;;;;;;5113923;28;20598;-78
2022/11/18 07:27:12;;;;;;;7.70;6.90;;;;;;;;;;5114534;28;20196;-78
2022/11/18 07:29:39;;;;;;;8.57;7.57;;;;;;;;;;5113620;28;20683;-78
2022/11/18 07:32:06;;;;;;;9.57;7.17;;;;;;;;;;5114211;28;20252;-78
2022/11/18 07:34:33;;;;;;;6.90;6.20;;;;;;;;;;5113751;28;20209;-78
2022/11/18 07:37:00;;;;;;;7.50;6.47;;;;;;;;;;5114084;28;20207;-78
2022/11/18 07:39:28;;;;;;;6.30;5.70;;;;;;;;;;5113592;28;20200;-78
2022/11/18 07:41:54;;;;;;;6.67;5.70;;;;;;;;;;5099873;28;20586;-78
2022/11/18 07:44:21;;;;;;;6.33;5.53;;;;;;;;;;5113469;28;20223;-79
2022/11/18 07:46:48;;;;;;;6.77;6.07;;;;;;;;;;5113597;28;20200;-79
2022/11/18 07:49:15;;;;;;;5.50;4.83;;;;;;;;;;5113443;28;20583;-78
2022/11/18 07:51:42;;;;;;;6.33;5.63;;;;;;;;;;5113543;28;20203;-78
2022/11/18 07:54:10;;;;;;;7.83;6.00;;;;;;;;;;5113698;28;20641;-78
2022/11/18 07:56:38;;;;;;;7.63;6.63;;;;;;;;;;5113808;28;20247;-78
2022/11/18 07:59:05;;;;;;;5.70;5.20;;;;;;;;;;5113415;28;20602;-78
2022/11/18 08:01:32;;;;;;;4.80;4.40;;;;;;;;;;5113161;28;20726;-78
2022/11/18 08:04:04;;;;;;;5.97;5.30;;;;;;;;;;5113443;28;20581;-79
2022/11/18 08:06:32;;;;;;;5.33;4.77;;;;;;;;;;5113257;28;20237;-78
2022/11/18 08:08:59;;;;;;;6.40;5.23;;;;;;;;;;5113504;28;20237;-78
2022/11/18 08:11:26;;;;;;;5.60;5.00;;;;;;;;;;5113016;28;20261;-79
2022/11/18 08:13:54;;;;;;;5.47;4.93;;;;;;;;;;5113396;28;20195;-79
2022/11/18 08:16:22;;;;;;;7.27;5.93;;;;;;;;;;5112554;28;20199;-78
2022/11/18 08:18:50;;;;;;;5.53;5.00;;;;;;;;;;5113000;28;20207;-78
2022/11/18 08:21:18;;;;;;;5.53;5.03;;;;;;;;;;5112211;28;20207;-78
2022/11/18 08:23:49;;;;;;;6.73;4.90;;;;;;;;;;5112678;28;20231;-78
2022/11/18 08:26:16;;;;;;;5.30;4.80;;;;;;;;;;5112980;28;20203;-75
2022/11/18 08:28:44;;;;;;;5.47;4.80;;;;;;;;;;5112736;28;20214;-76
2022/11/18 08:31:13;;;;;;;7.43;5.20;;;;;;;;;;5112658;28;20196;-76
2022/11/18 08:33:40;;;;;;;6.90;4.87;;;;;;;;;;5112991;28;20191;-76
2022/11/18 08:36:09;;;;;;;5.87;5.23;;;;;;;;;;5112617;28;20230;-77
2022/11/18 08:38:36;;;;;;;5.80;3.97;;;;;;;;;;5112992;28;20226;-76
2022/11/18 08:41:04;;;;;;;4.37;3.93;;;;;;;;;;5112524;28;20200;-76
2022/11/18 08:43:30;;;;;;;5.13;4.67;;;;;;;;;;5112148;28;20616;-76
2022/11/18 08:45:57;;;;;;;5.57;4.27;;;;;;;;;;5112602;28;20214;-76
2022/11/18 08:48:25;;;;;;;4.57;3.97;;;;;;;;;;5112844;28;20200;-78
2022/11/18 08:50:53;;;;;;;5.80;4.30;;;;;;;;;;5112549;28;20705;-77
2022/11/18 08:53:20;;;;;;;4.93;4.37;;;;;;;;;;5112718;28;20208;-76
2022/11/18 08:55:47;;;;;;;4.93;4.43;;;;;;;;;;5111810;28;20199;-77
2022/11/18 08:58:14;;;;;;;4.17;3.87;;;;;;;;;;5112557;28;20204;-77
2022/11/18 09:00:41;;;;;;;4.50;4.10;;;;;;;;;;5112156;28;20196;-76
2022/11/18 09:03:08;;;;;;;6.90;4.63;;;;;;;;;;5112091;28;20221;-78
2022/11/18 09:05:36;;;;;;;8.03;5.40;;;;;;;;;;5112397;28;20197;-77
2022/11/18 09:08:03;;;;;;;8.20;6.50;;;;;;;;;;5112271;28;20198;-77
2022/11/18 09:10:30;;;;;;;9.10;7.23;;;;;;;;;;5112058;28;20206;-77
2022/11/18 09:12:56;;;;;;;9.00;7.40;;;;;;;;;;5112085;28;20223;-77
2022/11/18 09:15:25;;;;;;;7.57;6.70;;;;;;;;;;5111989;28;20207;-77
2022/11/18 09:17:51;;;;;;;8.57;7.70;;;;;;;;;;5111912;28;20209;-77
2022/11/18 09:20:19;;;;;;;9.53;7.03;;;;;;;;;;5112046;28;20225;-77
2022/11/18 09:22:47;;;;;;;9.50;8.00;;;;;;;;;;5111631;28;20208;-78
2022/11/18 09:25:14;;;;;;;7.30;6.60;;;;;;;;;;5111962;28;20223;-77
2022/11/18 09:27:40;;;;;;;8.07;7.27;;;;;;;;;;5111438;28;20630;-78
2022/11/18 09:30:09;;;;;;;8.77;6.80;;;;;;;;;;5111938;28;20580;-81
2022/11/18 09:32:36;;;;;;;8.20;6.63;;;;;;;;;;5111818;28;20232;-76
2022/11/18 09:35:03;;;;;;;6.73;6.03;;;;;;;;;;5111448;28;20272;-76
2022/11/18 09:37:30;;;;;;;7.63;6.63;;;;;;;;;;5111444;28;20198;-76
2022/11/18 09:39:58;;;;;;;8.73;6.00;;;;;;;;;;5111438;28;20224;-77
2022/11/18 09:42:39;;;;;;;7.73;6.93;;;;;;;;;;5111573;28;20216;-77
2022/11/18 09:45:15;;;;;;;7.03;5.93;;;;;;;;;;5111299;28;20666;-76
2022/11/18 09:47:42;;;;;;;6.30;5.70;;;;;;;;;;5111544;28;20201;-78
2022/11/18 09:50:12;;;;;;;6.83;6.17;;;;;;;;;;5110894;28;20211;-78
2022/11/18 09:52:42;;;;;;;6.50;5.87;;;;;;;;;;5111379;28;20226;-78
2022/11/18 09:55:14;;;;;;;6.17;5.23;;;;;;;;;;5111716;28;20662;-77
2022/11/18 09:57:46;;;;;;;8.97;6.53;;;;;;;;;;5111362;28;20221;-77
2022/11/18 10:00:18;;;;;;;11.27;7.00;;;;;;;;;;5111179;28;20779;-77
2022/11/18 10:02:53;;;;;;;6.93;6.23;;;;;;;;;;5110789;28;20260;-77
2022/11/18 10:05:22;;;;;;;8.07;6.53;;;;;;;;;;5109792;28;20304;-77
2022/11/18 10:08:00;;;;;;;7.87;7.07;;;;;;;;;;5101558;28;20202;-77
2022/11/18 10:10:37;;;;;;;8.13;7.10;;;;;;;;;;5111064;28;20202;-77
2022/11/18 10:13:10;;;;;;;17.60;11.83;;;;;;;;;;5097603;28;20217;-77
2022/11/18 10:15:39;;;;;;;10.10;6.67;;;;;;;;;;5111303;28;20206;-77
2022/11/18 10:18:17;;;;;;;10.43;8.70;;;;;;;;;;5111078;28;20211;-77
2022/11/18 10:20:52;;;;;;;7.57;6.47;;;;;;;;;;5110642;28;20673;-78
2022/11/18 10:23:22;;;;;;;7.17;6.23;;;;;;;;;;5110682;28;20683;-78
2022/11/18 10:25:55;;;;;;;8.30;6.23;;;;;;;;;;5110927;28;20221;-77
2022/11/18 10:28:23;;;;;;;7.53;6.80;;;;;;;;;;5090536;28;20201;-77
2022/11/18 10:30:50;;;;;;;9.47;6.47;;;;;;;;;;5103349;28;20206;-78
2022/11/18 10:33:24;;;;;;;7.83;7.03;;;;;;;;;;5110766;28;20205;-77
2022/11/18 10:35:50;;;;;;;6.97;6.10;;;;;;;;;;5110379;28;20225;-78
2022/11/18 10:38:19;;;;;;;9.53;5.70;;;;;;;;;;5111043;28;20200;-77
2022/11/18 10:40:47;;;;;;;6.40;5.77;;;;;;;;;;5110651;28;20205;-77
2022/11/18 10:43:46;;;;;;;6.93;6.10;;;;;;;;;;5112096;28;20594;-78
2022/11/18 10:46:27;;;;;;;7.63;6.83;;;;;;;;;;5114404;28;20205;-78
2022/11/18 10:49:12;;;;;;;5.77;5.27;;;;;;;;;;5114732;28;20715;-78
2022/11/18 10:51:41;;;;;;;9.60;6.97;;;;;;;;;;5114972;28;20272;-78
2022/11/18 10:54:09;;;;;;;5.20;4.60;;;;;;;;;;5114844;28;20210;-78
2022/11/18 10:56:45;;;;;;;6.40;5.77;;;;;;;;;;5114401;28;20209;-78
2022/11/18 10:59:29;;;;;;;7.73;6.10;;;;;;;;;;5114296;28;20204;-79
2022/11/18 11:02:01;;;;;;;10.63;8.07;;;;;;;;;;5114392;28;20226;-78
2022/11/18 11:04:29;;;;;;;8.80;7.47;;;;;;;;;;5114642;28;20279;-78
2022/11/18 11:06:57;;;;;;;9.80;7.20;;;;;;;;;;5114362;28;20207;-78
2022/11/18 11:09:27;;;;;;;10.37;7.37;;;;;;;;;;5114025;28;20286;-78
2022/11/18 11:11:59;;;;;;;10.63;7.80;;;;;;;;;;5114862;28;20201;-78
2022/11/18 11:14:32;;;;;;;8.57;7.00;;;;;;;;;;5114371;28;20190;-78
2022/11/18 11:17:07;;;;;;;7.07;6.37;;;;;;;;;;5114482;28;20292;-78
2022/11/18 11:19:41;;;;;;;8.67;7.10;;;;;;;;;;5113607;28;20201;-78
2022/11/18 11:22:10;;;;;;;8.97;6.70;;;;;;;;;;5114765;28;20289;-80
2022/11/18 11:24:37;;;;;;;8.17;7.37;;;;;;;;;;5114086;28;20212;-78
2022/11/18 11:27:13;;;;;;;7.40;6.70;;;;;;;;;;5114235;28;20594;-78
2022/11/18 11:30:07;;;;;;;8.40;6.80;;;;;;;;;;5113647;28;20202;-78
2022/11/18 11:32:46;;;;;;;12.60;8.67;;;;;;;;;;5104226;28;20199;-78
2022/11/18 11:35:16;;;;;;;20.93;15.37;;;;;;;;;;5114092;28;20203;-79
2022/11/18 11:37:50;;;;;;;9.90;8.87;;;;;;;;;;5114306;28;20575;-79
2022/11/18 11:40:25;;;;;;;21.43;14.90;;;;;;;;;;5113748;28;20665;-79
2022/11/18 11:43:08;;;;;;;23.93;21.67;;;;;;;;;;5113976;28;20660;-78
2022/11/18 11:45:41;;;;;;;10.90;9.80;;;;;;;;;;5113532;28;20635;-80
2022/11/18 11:48:24;;;;;;;7.13;5.80;;;;;;;;;;5114118;28;20203;-78
2022/11/18 11:50:54;;;;;;;5.80;5.30;;;;;;;;;;5113374;28;20210;-78
2022/11/18 11:53:38;;;;;;;4.03;3.73;;;;;;;;;;5113510;28;20563;-79
2022/11/18 11:56:11;;;;;;;3.47;3.17;;;;;;;;;;5113672;28;20594;-79
2022/11/18 11:58:50;;;;;;;4.07;3.73;;;;;;;;;;5114041;28;20195;-79
2022/11/18 12:01:20;;;;;;;3.70;3.40;;;;;;;;;;5112887;28;20223;-78
2022/11/18 12:03:48;;;;;;;8.10;6.47;;;;;;;;;;5113347;28;20211;-79
2022/11/18 12:06:15;;;;;;;3.93;3.53;;;;;;;;;;5113386;28;20223;-78
2022/11/18 12:08:50;;;;;;;2.93;2.73;;;;;;;;;;5113855;28;20273;-80
2022/11/18 12:11:22;;;;;;;3.57;2.97;;;;;;;;;;5099135;28;20202;-79
2022/11/18 12:13:53;;;;;;;5.23;3.77;;;;;;;;;;5113182;28;20678;-79
2022/11/18 12:16:27;;;;;;;6.90;3.43;;;;;;;;;;5113292;28;20199;-79
2022/11/18 12:18:58;;;;;;;4.33;3.47;;;;;;;;;;5113075;28;20203;-80
2022/11/18 12:21:57;;;;;;;4.77;2.90;;;;;;;;;;5112851;28;20227;-79
2022/11/18 12:24:35;;;;;;;3.23;2.97;;;;;;;;;;5029836;28;20227;-80
2022/11/18 12:27:06;;;;;;;3.20;2.90;;;;;;;;;;5094491;28;20286;-79
2022/11/18 12:29:39;;;;;;;3.40;2.70;;;;;;;;;;5112708;28;20195;-79
2022/11/18 12:32:25;;;;;;;3.87;3.47;;;;;;;;;;5113301;28;20195;-79
2022/11/18 12:34:57;;;;;;;6.10;5.03;;;;;;;;;;5112777;28;20218;-79
2022/11/18 12:38:00;;;;;;;6.40;5.27;;;;;;;;;;5113038;28;20236;-79
2022/11/18 12:40:48;;;;;;;7.03;5.47;;;;;;;;;;5100656;28;20222;-79
2022/11/18 12:44:00;;;;;;;8.63;6.43;;;;;;;;;;5106868;28;20267;-79
2022/11/18 12:46:54;;;;;;;9.17;7.83;;;;;;;;;;5104097;28;20815;-78
2022/11/18 12:49:57;;;;;;;37.87;24.20;;;;;;;;;;5075171;28;20210;-79
2022/11/18 12:52:53;;;;;;;14.00;11.07;;;;;;;;;;5086815;28;20203;-79
2022/11/18 12:55:41;;;;;;;8.03;7.33;;;;;;;;;;5112204;28;20199;-80
2022/11/18 12:58:22;;;;;;;4.80;4.40;;;;;;;;;;5106397;28;20203;-79
2022/11/18 13:00:52;;;;;;;5.57;5.07;;;;;;;;;;5097448;28;20204;-80
2022/11/18 13:03:24;;;;;;;5.40;4.90;;;;;;;;;;5112504;28;20199;-79
2022/11/18 13:05:59;;;;;;;7.67;6.13;;;;;;;;;;5111015;28;20318;-79
2022/11/18 13:08:28;;;;;;;7.00;6.33;;;;;;;;;;5112353;28;20203;-79
2022/11/18 13:11:43;;;;;;;7.13;6.43;;;;;;;;;;5111843;28;20203;-79
2022/11/18 13:13:44;;;;;;;5.87;5.27;;;;;;;;;;5112091;28;20774;-81
2022/11/18 13:19:02;;;;;;;6.93;6.23;;;;;;;;;;5112381;28;20267;-79
2022/11/18 13:24:16;;;;;;;4.80;4.27;;;;;;;;;;5112033;28;20287;-83
2022/11/18 13:26:44;;;;;;;5.30;4.67;;;;;;;;;;5111802;28;20214;-80
2022/11/18 13:29:21;;;;;;;3.87;3.57;;;;;;;;;;5112145;28;20211;-80
2022/11/18 13:31:53;;;;;;;4.93;4.10;;;;;;;;;;5112075;28;20345;-80
2022/11/18 13:34:22;;;;;;;8.40;4.37;;;;;;;;;;5111879;28;20214;-79
2022/11/18 13:36:50;;;;;;;4.80;4.40;;;;;;;;;;5111957;28;20201;-79
2022/11/18 13:39:22;;;;;;;4.33;3.93;;;;;;;;;;5111346;28;20652;-80
2022/11/18 13:41:59;;;;;;;5.43;4.43;;;;;;;;;;5111186;28;20743;-79
2022/11/18 13:44:27;;;;;;;5.13;4.73;;;;;;;;;;5111388;28;20257;-80
2022/11/18 13:46:58;;;;;;;4.53;4.13;;;;;;;;;;5111490;28;20226;-79
2022/11/18 13:49:33;;;;;;;5.10;4.57;;;;;;;;;;5111457;28;20211;-79
2022/11/18 13:52:01;;;;;;;7.00;5.53;;;;;;;;;;5111216;28;20696;-79
2022/11/18 13:54:32;;;;;;;65.47;34.83;;;;;;;;;;5111386;28;20203;-79
2022/11/18 13:56:59;;;;;;;108.83;62.00;;;;;;;;;;5111455;28;20208;-80
2022/11/18 13:59:26;;;;;;;65.30;40.33;;;;;;;;;;5110828;28;20200;-79
2022/11/18 14:01:56;;;;;;;40.03;25.50;;;;;;;;;;5111699;28;20281;-79
2022/11/18 14:04:25;;;;;;;20.97;16.67;;;;;;;;;;5110902;28;20207;-79
2022/11/18 14:06:52;;;;;;;22.63;15.37;;;;;;;;;;5111184;28;20195;-79
2022/11/18 14:09:23;;;;;;;24.20;19.40;;;;;;;;;;5110707;28;20200;-79
2022/11/18 14:12:04;;;;;;;13.93;11.53;;;;;;;;;;5111143;28;20196;-80
2022/11/18 14:14:32;;;;;;;18.63;13.70;;;;;;;;;;5110992;28;20193;-80
2022/11/18 14:17:16;;;;;;;18.33;16.30;;;;;;;;;;5111012;28;20608;-80
2022/11/18 14:19:43;;;;;;;12.07;10.90;;;;;;;;;;5110940;28;20208;-80
2022/11/18 14:22:14;;;;;;;13.60;10.97;;;;;;;;;;5111056;28;20208;-79
2022/11/18 14:24:41;;;;;;;12.23;9.57;;;;;;;;;;5110565;28;20608;-79
2022/11/18 14:27:38;;;;;;;8.77;7.97;;;;;;;;;;5110345;28;20211;-80
2022/11/18 14:30:40;;;;;;;9.80;8.27;;;;;;;;;;5097633;28;20206;-80
2022/11/18 14:33:15;;;;;;;13.80;10.77;;;;;;;;;;5047961;28;20227;-80
2022/11/18 14:35:44;;;;;;;13.13;9.90;;;;;;;;;;5047758;28;20206;-79
2022/11/18 14:38:15;;;;;;;11.07;9.40;;;;;;;;;;5073726;28;20208;-79
2022/11/18 14:40:42;;;;;;;11.10;9.57;;;;;;;;;;5110450;28;20195;-80
2022/11/18 14:43:12;;;;;;;9.97;8.97;;;;;;;;;;5110764;28;20206;-80
2022/11/18 14:45:39;;;;;;;12.83;9.63;;;;;;;;;;5110478;28;20310;-80
2022/11/18 14:48:06;;;;;;;11.77;10.63;;;;;;;;;;5110316;28;20203;-79
2022/11/18 14:50:33;;;;;;;11.67;10.47;;;;;;;;;;5110263;28;20197;-80
2022/11/18 14:53:00;;;;;;;8.37;7.47;;;;;;;;;;5111090;28;20206;-79
2022/11/18 14:55:27;;;;;;;10.93;9.47;;;;;;;;;;5110254;28;20211;-79
2022/11/18 14:57:54;;;;;;;17.80;15.03;;;;;;;;;;5110738;28;20691;-80
2022/11/18 15:00:22;;;;;;;33.40;19.47;;;;;;;;;;5110288;28;20195;-81
2022/11/18 15:02:49;;;;;;;34.67;21.10;;;;;;;;;;5110638;28;20238;-80
2022/11/18 15:05:16;;;;;;;22.23;16.80;;;;;;;;;;5111081;28;20284;-79
2022/11/18 15:07:43;;;;;;;71.93;40.67;;;;;;;;;;5110736;28;20295;-80
2022/11/18 15:10:14;;;;;;;52.90;31.20;;;;;;;;;;5110376;28;20210;-80
2022/11/18 15:12:40;;;;;;;41.33;28.57;;;;;;;;;;5110800;28;20278;-79
2022/11/18 15:15:08;;;;;;;22.50;15.37;;;;;;;;;;5110607;28;20205;-79
2022/11/18 15:17:37;;;;;;;18.83;12.10;;;;;;;;;;5110289;28;20586;-79